createdAt,value
2024-02-07T00:02:13.605Z,2.20
2024-02-07T00:04:42.001Z,8.90
2024-02-07T00:07:10.197Z,4.80
2024-02-07T00:09:38.184Z,3.30
2024-02-07T00:12:06.303Z,5.50
2024-02-07T00:14:34.281Z,4.00
2024-02-07T00:17:02.357Z,7.30
2024-02-07T00:19:30.397Z,4.30
2024-02-07T00:21:58.366Z,4.00
2024-02-07T00:24:26.378Z,5.50
2024-02-07T00:26:54.319Z,5.70
2024-02-07T00:29:22.235Z,6.30
2024-02-07T00:31:50.222Z,8.10
2024-02-07T00:34:18.270Z,4.50
2024-02-07T00:36:46.255Z,4.70
2024-02-07T00:39:14.181Z,4.20
2024-02-07T00:41:42.245Z,8.00
2024-02-07T00:44:10.266Z,7.00
2024-02-07T00:46:39.400Z,2.90
2024-02-07T00:49:13.578Z,5.00
2024-02-07T00:54:55.385Z,4.00
2024-02-07T00:57:24.326Z,6.70
2024-02-07T00:59:53.124Z,8.40
2024-02-07T01:02:21.969Z,6.50
2024-02-07T01:04:51.544Z,7.80
2024-02-07T01:07:19.810Z,10.10
2024-02-07T01:09:48.052Z,4.10
2024-02-07T01:12:16.041Z,2.60
2024-02-07T01:14:44.034Z,7.80
2024-02-07T01:17:12.145Z,8.80
2024-02-07T01:19:40.223Z,4.10
2024-02-07T01:22:08.175Z,6.30
2024-02-07T01:24:36.138Z,6.50
2024-02-07T01:27:05.572Z,3.80
2024-02-07T01:29:35.196Z,6.80
2024-02-07T01:32:03.394Z,7.60
2024-02-07T01:34:31.543Z,3.80
2024-02-07T01:36:59.973Z,6.10
2024-02-07T01:39:28.060Z,6.60
2024-02-07T01:41:58.722Z,6.70
2024-02-07T01:44:29.074Z,5.50
2024-02-07T01:47:14.523Z,8.80
2024-02-07T01:49:52.400Z,5.60
2024-02-07T01:52:24.819Z,4.00
2024-02-07T01:54:54.591Z,8.50
2024-02-07T01:57:23.134Z,5.30
2024-02-07T01:59:51.354Z,5.80
2024-02-07T02:02:20.456Z,4.60
2024-02-07T02:04:48.499Z,3.90
2024-02-07T02:07:17.624Z,4.10
2024-02-07T02:09:46.857Z,6.70
2024-02-07T02:12:15.260Z,2.20
2024-02-07T02:14:44.906Z,4.40
2024-02-07T02:17:12.913Z,4.30
2024-02-07T02:19:46.752Z,3.00
2024-02-07T02:22:34.575Z,9.20
2024-02-07T02:25:24.054Z,7.90
2024-02-07T02:28:08.714Z,5.50
2024-02-07T02:30:48.346Z,5.50
2024-02-07T02:33:19.722Z,5.70
2024-02-07T02:35:48.580Z,6.60
2024-02-07T02:38:17.185Z,3.90
2024-02-07T02:40:45.322Z,4.00
2024-02-07T02:43:13.517Z,4.50
2024-02-07T02:45:42.345Z,5.30
2024-02-07T02:48:13.677Z,2.40
2024-02-07T02:50:42.205Z,3.60
2024-02-07T02:53:10.214Z,5.10
2024-02-07T02:55:39.284Z,5.20
2024-02-07T02:58:07.422Z,4.10
2024-02-07T03:00:35.854Z,4.10
2024-02-07T03:03:04.125Z,6.10
2024-02-07T03:05:41.005Z,8.70
2024-02-07T03:08:12.416Z,2.50
2024-02-07T03:10:40.528Z,4.80
2024-02-07T03:23:19.280Z,4.40
2024-02-07T03:25:46.227Z,7.20
2024-02-07T03:28:15.818Z,6.20
2024-02-07T03:30:42.607Z,3.60
2024-02-07T03:33:09.297Z,6.40
2024-02-07T03:35:36.475Z,5.20
2024-02-07T03:38:03.508Z,5.00
2024-02-07T03:40:30.546Z,7.70
2024-02-07T03:42:59.213Z,4.10
2024-02-07T03:45:26.223Z,4.20
2024-02-07T03:47:53.186Z,8.80
2024-02-07T03:50:25.789Z,3.00
2024-02-07T03:52:52.595Z,3.70
2024-02-07T03:55:19.788Z,3.90
2024-02-07T03:57:48.579Z,12.30
2024-02-07T04:00:17.594Z,5.40
2024-02-07T04:02:48.903Z,4.10
2024-02-07T04:05:19.830Z,5.00
2024-02-07T04:07:47.016Z,4.50
2024-02-07T04:10:14.453Z,6.10
2024-02-07T04:12:41.435Z,3.00
2024-02-07T04:15:27.220Z,4.70
2024-02-07T04:18:19.784Z,2.30
2024-02-07T04:21:10.194Z,3.80
2024-02-07T04:23:56.690Z,5.40
2024-02-07T04:29:28.587Z,3.40
2024-02-07T04:32:13.717Z,4.20
2024-02-07T04:35:01.429Z,3.50
2024-02-07T04:37:47.237Z,5.10
2024-02-07T04:40:32.615Z,11.70
2024-02-07T04:43:18.008Z,5.80
2024-02-07T04:46:03.237Z,4.40
2024-02-07T04:48:48.812Z,2.80
2024-02-07T04:51:34.101Z,2.70
2024-02-07T04:54:19.379Z,5.90
2024-02-07T04:57:04.677Z,3.50
2024-02-07T04:59:49.792Z,2.60
2024-02-07T05:02:35.090Z,2.30
2024-02-07T05:05:20.319Z,3.10
2024-02-07T05:08:05.770Z,5.60
2024-02-07T05:10:50.960Z,4.50
2024-02-07T05:13:36.374Z,2.00
2024-02-07T05:16:03.325Z,3.00
2024-02-07T05:18:30.190Z,6.60
2024-02-07T05:20:56.980Z,1.80
2024-02-07T05:23:23.832Z,5.60
2024-02-07T05:25:50.735Z,3.70
2024-02-07T05:28:18.269Z,4.30
2024-02-07T05:30:45.008Z,2.70
2024-02-07T05:33:11.769Z,3.20
2024-02-07T05:35:38.698Z,4.70
2024-02-07T05:38:05.768Z,4.40
2024-02-07T05:40:32.458Z,3.10
2024-02-07T05:42:59.805Z,4.90
2024-02-07T05:45:26.781Z,2.00
2024-02-07T05:47:53.504Z,5.20
2024-02-07T05:50:20.155Z,4.90
2024-02-07T05:52:47.204Z,3.60
2024-02-07T05:55:14.257Z,2.60
2024-02-07T05:57:41.254Z,4.80
2024-02-07T06:00:09.771Z,2.10
2024-02-07T06:02:39.136Z,2.60
2024-02-07T06:05:06.001Z,4.40
2024-02-07T06:07:36.894Z,4.90
2024-02-07T06:10:03.934Z,4.30
2024-02-07T06:12:31.910Z,3.80
2024-02-07T06:15:01.623Z,2.80
2024-02-07T06:17:29.492Z,4.20
2024-02-07T06:19:57.133Z,4.00
2024-02-07T06:22:23.974Z,7.10
2024-02-07T06:24:51.312Z,3.80
2024-02-07T06:27:18.091Z,5.60
2024-02-07T06:29:45.428Z,5.10
2024-02-07T06:32:12.177Z,5.20
2024-02-07T06:34:38.913Z,4.60
2024-02-07T06:37:05.754Z,3.10
2024-02-07T06:39:33.527Z,9.00
2024-02-07T06:42:00.200Z,5.40
2024-02-07T06:44:26.841Z,5.10
2024-02-07T06:46:53.574Z,7.40
2024-02-07T06:49:20.428Z,3.70
2024-02-07T06:51:47.730Z,2.80
2024-02-07T06:54:14.581Z,2.30
2024-02-07T06:56:41.483Z,3.70
2024-02-07T06:59:11.759Z,5.20
2024-02-07T07:01:40.880Z,4.50
2024-02-07T07:04:07.694Z,2.70
2024-02-07T07:06:34.543Z,6.60
2024-02-07T07:09:01.427Z,2.80
2024-02-07T07:11:28.922Z,6.30
2024-02-07T07:13:59.210Z,2.30
2024-02-07T07:16:28.137Z,5.40
2024-02-07T07:18:57.107Z,4.20
2024-02-07T07:21:23.805Z,3.90
2024-02-07T07:23:50.926Z,5.30
2024-02-07T07:26:17.787Z,2.90
2024-02-07T07:28:44.611Z,5.90
2024-02-07T07:31:11.415Z,3.50
2024-02-07T07:33:38.163Z,4.90
2024-02-07T07:36:05.274Z,3.30
2024-02-07T07:38:32.021Z,3.80
2024-02-07T07:40:59.003Z,5.20
2024-02-07T07:43:25.916Z,10.10
2024-02-07T07:45:53.156Z,4.70
2024-02-07T07:48:23.846Z,2.50
2024-02-07T07:50:52.201Z,4.10
2024-02-07T07:53:19.043Z,3.80
2024-02-07T07:55:45.885Z,8.10
2024-02-07T07:58:13.409Z,6.20
2024-02-07T08:00:40.205Z,5.10
2024-02-07T08:03:07.469Z,4.60
2024-02-07T08:05:35.725Z,5.80
2024-02-07T08:08:04.318Z,4.30
2024-02-07T08:10:31.076Z,4.60
2024-02-07T08:12:57.779Z,2.70
2024-02-07T08:15:24.462Z,3.90
2024-02-07T08:17:51.482Z,7.20
2024-02-07T08:20:22.662Z,6.00
2024-02-07T08:22:49.523Z,3.40
2024-02-07T08:25:16.535Z,2.20
2024-02-07T08:27:43.292Z,2.40
2024-02-07T08:30:10.475Z,5.00
2024-02-07T08:32:37.254Z,2.50
2024-02-07T08:35:04.615Z,3.80
2024-02-07T08:37:31.508Z,7.30
2024-02-07T08:39:58.363Z,2.50
2024-02-07T08:42:25.175Z,2.30
2024-02-07T08:44:51.918Z,4.30
2024-02-07T08:47:18.647Z,3.70
2024-02-07T08:49:45.482Z,2.50
2024-02-07T08:52:12.285Z,2.60
2024-02-07T08:54:39.988Z,3.80
2024-02-07T08:57:06.694Z,8.00
2024-02-07T08:59:33.512Z,4.60
2024-02-07T09:02:00.295Z,3.00
2024-02-07T09:04:27.243Z,5.90
2024-02-07T09:06:53.945Z,2.40
2024-02-07T09:09:20.639Z,3.00
2024-02-07T09:11:47.343Z,2.60
2024-02-07T09:14:13.993Z,2.80
2024-02-07T09:16:40.912Z,2.70
2024-02-07T09:19:07.799Z,2.70
2024-02-07T09:21:35.992Z,2.00
2024-02-07T09:24:04.874Z,2.00
2024-02-07T09:26:31.992Z,2.30
2024-02-07T09:28:59.724Z,4.00
2024-02-07T09:31:26.683Z,3.40
2024-02-07T09:33:53.852Z,6.20
2024-02-07T09:36:20.875Z,2.50
2024-02-07T09:38:47.655Z,4.70
2024-02-07T09:41:18.479Z,4.70
2024-02-07T09:43:47.401Z,2.80
2024-02-07T09:46:18.825Z,4.90
2024-02-07T09:48:45.991Z,2.40
2024-02-07T09:51:15.616Z,2.30
2024-02-07T09:53:43.530Z,4.30
2024-02-07T09:56:11.380Z,6.80
2024-02-07T09:58:39.041Z,2.10
2024-02-07T10:01:09.770Z,5.00
2024-02-07T10:03:40.594Z,3.10
2024-02-07T10:06:09.216Z,2.90
2024-02-07T10:08:36.674Z,5.00
2024-02-07T10:11:08.367Z,5.70
2024-02-07T10:13:35.322Z,2.00
2024-02-07T10:16:06.555Z,4.00
2024-02-07T10:18:34.199Z,2.90
2024-02-07T10:21:02.535Z,3.00
2024-02-07T10:23:29.431Z,2.90
2024-02-07T10:25:57.113Z,2.10
2024-02-07T10:28:25.515Z,3.20
2024-02-07T10:31:02.922Z,3.00
2024-02-07T10:33:44.712Z,3.80
2024-02-07T10:36:13.232Z,4.10
2024-02-07T10:38:41.137Z,5.30
2024-02-07T10:41:08.261Z,2.50
2024-02-07T10:43:38.324Z,4.30
2024-02-07T10:46:11.045Z,3.50
2024-02-07T10:48:39.478Z,7.80
2024-02-07T10:51:06.660Z,5.60
2024-02-07T10:53:34.254Z,5.60
2024-02-07T10:56:05.354Z,3.00
2024-02-07T10:58:33.221Z,5.10
2024-02-07T11:01:00.771Z,2.80
2024-02-07T11:03:31.513Z,3.80
2024-02-07T11:05:59.194Z,3.40
2024-02-07T11:08:28.491Z,3.40
2024-02-07T11:10:57.384Z,2.30
2024-02-07T11:13:24.757Z,4.80
2024-02-07T11:15:51.540Z,11.10
2024-02-07T11:18:18.564Z,6.70
2024-02-07T11:20:47.553Z,3.60
2024-02-07T11:23:25.249Z,5.30
2024-02-07T11:25:53.630Z,5.20
2024-02-07T11:28:20.716Z,2.10
2024-02-07T11:30:49.814Z,2.20
2024-02-07T11:33:16.674Z,3.20
2024-02-07T11:35:43.649Z,3.00
2024-02-07T11:38:11.866Z,6.20
2024-02-07T11:40:40.249Z,4.90
2024-02-07T11:43:11.142Z,4.10
2024-02-07T11:45:38.521Z,4.80
2024-02-07T11:48:24.607Z,4.60
2024-02-07T11:53:27.151Z,5.10
2024-02-07T11:55:54.067Z,3.60
2024-02-07T11:58:23.420Z,2.30
2024-02-07T12:00:50.682Z,5.90
2024-02-07T12:03:18.581Z,3.00
2024-02-07T12:05:46.510Z,6.50
2024-02-07T12:08:16.397Z,4.40
2024-02-07T12:10:43.305Z,3.00
2024-02-07T12:13:11.623Z,4.60
2024-02-07T12:15:38.783Z,2.70
2024-02-07T12:18:05.789Z,3.70
2024-02-07T12:20:32.804Z,4.90
2024-02-07T12:23:01.043Z,5.20
2024-02-07T12:25:28.748Z,5.10
2024-02-07T12:27:55.792Z,7.70
2024-02-07T12:30:22.559Z,3.90
2024-02-07T12:32:49.855Z,4.40
2024-02-07T12:35:18.826Z,2.90
2024-02-07T12:37:47.819Z,2.60
2024-02-07T12:40:15.209Z,2.70
2024-02-07T12:42:42.287Z,5.10
2024-02-07T12:45:13.967Z,6.30
2024-02-07T12:47:41.764Z,8.80
2024-02-07T12:50:09.158Z,4.70
2024-02-07T12:52:35.998Z,5.50
2024-02-07T12:55:02.791Z,6.00
2024-02-07T12:57:31.072Z,2.20
2024-02-07T13:00:09.739Z,4.80
2024-02-07T13:02:37.099Z,3.40
2024-02-07T13:05:04.225Z,3.10
2024-02-07T13:07:31.151Z,3.30
2024-02-07T13:09:58.063Z,5.40
2024-02-07T13:12:30.317Z,5.30
2024-02-07T13:14:59.109Z,3.60
2024-02-07T13:17:25.949Z,3.70
2024-02-07T13:19:52.757Z,4.40
2024-02-07T13:22:19.591Z,5.60
2024-02-07T13:24:46.551Z,8.40
2024-02-07T13:27:13.282Z,5.90
2024-02-07T13:29:41.892Z,5.20
2024-02-07T13:32:13.726Z,4.30
2024-02-07T13:34:45.851Z,5.70
2024-02-07T13:37:12.911Z,5.70
2024-02-07T13:39:39.678Z,3.40
2024-02-07T13:42:06.836Z,3.30
2024-02-07T13:44:33.797Z,5.20
2024-02-07T13:47:01.913Z,3.70
2024-02-07T13:49:28.911Z,5.50
2024-02-07T13:51:56.032Z,2.70
2024-02-07T13:54:22.808Z,4.00
2024-02-07T13:56:49.592Z,8.20
2024-02-07T13:59:16.980Z,10.20
2024-02-07T14:01:44.273Z,6.40
2024-02-07T14:04:11.225Z,5.30
2024-02-07T14:06:38.378Z,5.90
2024-02-07T14:09:05.693Z,6.40
2024-02-07T14:11:32.630Z,5.10
2024-02-07T14:13:59.742Z,3.80
2024-02-07T14:16:26.748Z,3.90
2024-02-07T14:18:53.527Z,2.30
2024-02-07T14:21:20.352Z,2.50
2024-02-07T14:23:47.479Z,2.50
2024-02-07T14:26:14.290Z,3.90
2024-02-07T14:28:41.663Z,3.40
2024-02-07T14:31:08.434Z,2.80
2024-02-07T14:33:37.279Z,3.00
2024-02-07T14:36:05.140Z,2.30
2024-02-07T14:38:37.898Z,2.80
2024-02-07T14:41:06.316Z,2.80
2024-02-07T14:43:33.553Z,2.00
2024-02-07T14:46:00.416Z,2.00
2024-02-07T14:48:32.119Z,2.20
2024-02-07T14:50:59.174Z,2.70
2024-02-07T14:53:26.615Z,2.30
2024-02-07T14:55:59.167Z,2.20
2024-02-07T14:58:29.192Z,2.80
2024-02-07T15:00:57.480Z,2.90
2024-02-07T15:03:24.693Z,3.40
2024-02-07T15:05:52.311Z,2.90
2024-02-07T15:08:19.110Z,2.70
2024-02-07T15:10:46.020Z,4.00
2024-02-07T15:13:13.368Z,4.40
2024-02-07T15:15:42.904Z,3.10
2024-02-07T15:18:12.084Z,2.20
2024-02-07T15:20:41.056Z,3.20
2024-02-07T15:23:07.871Z,4.00
2024-02-07T15:25:35.304Z,3.70
2024-02-07T15:28:02.803Z,4.30
2024-02-07T15:30:33.077Z,3.60
2024-02-07T15:32:59.977Z,5.90
2024-02-07T15:35:27.072Z,5.10
2024-02-07T15:37:54.181Z,6.80
2024-02-07T15:40:22.667Z,5.50
2024-02-07T15:42:49.521Z,3.90
2024-02-07T15:45:16.374Z,5.20
2024-02-07T15:47:43.250Z,3.70
2024-02-07T15:50:10.341Z,3.60
2024-02-07T15:52:37.611Z,3.10
2024-02-07T15:55:04.987Z,1.90
2024-02-07T15:57:33.702Z,2.40
2024-02-07T16:00:00.469Z,1.90
2024-02-07T16:02:28.634Z,2.00
2024-02-07T16:04:55.692Z,2.30
2024-02-07T16:07:23.001Z,8.70
2024-02-07T16:09:49.889Z,2.40
2024-02-07T16:12:17.203Z,2.40
2024-02-07T16:14:44.015Z,3.20
2024-02-07T16:17:13.707Z,2.80
2024-02-07T16:19:40.611Z,3.30
2024-02-07T16:22:07.414Z,3.40
2024-02-07T16:24:35.347Z,3.50
2024-02-07T16:27:02.421Z,4.90
2024-02-07T16:29:29.300Z,3.20
2024-02-07T16:31:56.194Z,4.50
2024-02-07T16:34:23.272Z,4.10
2024-02-07T16:36:51.423Z,6.90
2024-02-07T16:39:18.232Z,7.90
2024-02-07T16:41:46.017Z,5.50
2024-02-07T16:44:13.005Z,5.90
2024-02-07T16:46:40.025Z,5.30
2024-02-07T16:49:07.349Z,4.00
2024-02-07T16:51:34.385Z,4.10
2024-02-07T16:54:01.294Z,3.90
2024-02-07T16:56:30.634Z,4.10
2024-02-07T16:58:58.112Z,3.50
2024-02-07T17:01:26.354Z,5.80
2024-02-07T17:03:55.467Z,4.70
2024-02-07T17:06:23.276Z,5.10
2024-02-07T17:08:50.839Z,5.70
2024-02-07T17:11:18.846Z,5.40
2024-02-07T17:13:46.077Z,7.40
2024-02-07T17:16:13.281Z,12.80
2024-02-07T17:18:40.048Z,11.40
2024-02-07T17:21:07.775Z,11.70
2024-02-07T17:23:34.683Z,9.60
2024-02-07T17:26:01.790Z,12.00
2024-02-07T17:28:29.081Z,7.10
2024-02-07T17:30:56.269Z,6.80
2024-02-07T17:33:23.323Z,7.50
2024-02-07T17:35:51.650Z,6.70
2024-02-07T17:38:18.401Z,5.80
2024-02-07T17:40:45.338Z,8.70
2024-02-07T17:43:12.954Z,5.30
2024-02-07T17:45:39.713Z,6.90
2024-02-07T17:48:06.986Z,5.50
2024-02-07T17:50:36.538Z,7.80
2024-02-07T17:53:03.977Z,5.50
2024-02-07T17:55:31.041Z,6.40
2024-02-07T17:57:59.224Z,5.60
2024-02-07T18:00:27.359Z,5.20
2024-02-07T18:02:54.188Z,4.70
2024-02-07T18:05:26.825Z,5.90
2024-02-07T18:07:55.467Z,5.70
2024-02-07T18:10:23.329Z,6.60
2024-02-07T18:12:50.477Z,6.80
2024-02-07T18:15:17.626Z,6.50
2024-02-07T18:17:44.585Z,7.30
2024-02-07T18:20:12.320Z,5.10
2024-02-07T18:22:39.375Z,6.60
2024-02-07T18:25:06.788Z,6.00
2024-02-07T18:27:35.003Z,6.90
2024-02-07T18:30:16.547Z,5.70
2024-02-07T18:32:45.713Z,5.70
2024-02-07T18:35:12.577Z,5.90
2024-02-07T18:37:39.490Z,6.90
2024-02-07T18:40:07.883Z,10.00
2024-02-07T18:42:36.050Z,10.90
2024-02-07T18:45:06.880Z,9.00
2024-02-07T18:47:33.682Z,7.70
2024-02-07T18:50:00.602Z,7.20
2024-02-07T18:52:28.052Z,7.40
2024-02-07T18:54:54.972Z,8.10
2024-02-07T18:57:22.906Z,7.70
2024-02-07T18:59:54.419Z,11.10
2024-02-07T19:02:23.172Z,8.70
2024-02-07T19:04:50.362Z,9.10
2024-02-07T19:07:17.310Z,7.90
2024-02-07T19:09:44.432Z,7.60
2024-02-07T19:12:11.318Z,8.60
2024-02-07T19:14:39.161Z,8.90
2024-02-07T19:17:06.070Z,8.10
2024-02-07T19:19:34.006Z,8.40
2024-02-07T19:22:00.868Z,7.70
2024-02-07T19:24:30.133Z,8.00
2024-02-07T19:26:57.866Z,9.20
2024-02-07T19:29:36.119Z,7.80
2024-02-07T19:32:03.435Z,9.30
2024-02-07T19:34:30.621Z,11.00
2024-02-07T19:36:57.512Z,13.10
2024-02-07T19:39:26.636Z,9.50
2024-02-07T19:41:54.433Z,8.70
2024-02-07T19:44:21.188Z,8.40
2024-02-07T19:46:52.538Z,8.60
2024-02-07T19:49:19.554Z,8.90
2024-02-07T19:51:47.055Z,8.40
2024-02-07T19:54:14.149Z,9.60
2024-02-07T19:56:42.181Z,8.90
2024-02-07T19:59:11.156Z,10.90
2024-02-07T20:01:39.727Z,9.80
2024-02-07T20:04:07.451Z,8.10
2024-02-07T20:06:34.848Z,10.50
2024-02-07T20:09:02.394Z,9.30
2024-02-07T20:11:30.168Z,11.30
2024-02-07T20:13:57.067Z,8.10
2024-02-07T20:16:24.927Z,10.00
2024-02-07T20:18:52.118Z,12.70
2024-02-07T20:21:18.920Z,8.10
2024-02-07T20:23:45.799Z,9.80
2024-02-07T20:26:12.613Z,10.70
2024-02-07T20:28:41.344Z,8.30
2024-02-07T20:31:08.533Z,10.40
2024-02-07T20:33:36.334Z,9.70
2024-02-07T20:36:03.420Z,12.60
2024-02-07T20:38:30.255Z,16.60
2024-02-07T20:40:57.101Z,10.80
2024-02-07T20:43:23.803Z,15.30
2024-02-07T20:45:51.394Z,11.80
2024-02-07T20:48:18.676Z,11.40
2024-02-07T20:50:45.569Z,12.00
2024-02-07T20:53:13.311Z,13.80
2024-02-07T20:55:42.882Z,12.70
2024-02-07T20:58:09.728Z,12.50
2024-02-07T21:00:41.046Z,13.80
2024-02-07T21:03:09.568Z,11.90
2024-02-07T21:05:38.233Z,12.20
2024-02-07T21:08:05.904Z,10.50
2024-02-07T21:10:32.997Z,10.30
2024-02-07T21:12:59.806Z,11.80
2024-02-07T21:15:26.572Z,11.20
2024-02-07T21:17:53.468Z,11.40
2024-02-07T21:20:20.361Z,12.10
2024-02-07T21:22:47.111Z,11.40
2024-02-07T21:25:15.208Z,10.10
2024-02-07T21:27:41.851Z,11.00
2024-02-07T21:30:10.778Z,10.60
2024-02-07T21:32:37.702Z,14.40
2024-02-07T21:35:06.084Z,11.60
2024-02-07T21:37:32.805Z,18.20
2024-02-07T21:40:00.533Z,12.40
2024-02-07T21:42:27.398Z,12.60
2024-02-07T21:44:54.000Z,13.80
2024-02-07T21:47:20.671Z,10.60
2024-02-07T21:49:47.538Z,19.10
2024-02-07T21:52:14.457Z,11.40
2024-02-07T21:54:41.793Z,13.30
2024-02-07T21:57:08.567Z,11.40
2024-02-07T21:59:37.020Z,9.70
2024-02-07T22:02:04.008Z,8.20
2024-02-07T22:04:31.020Z,7.90
2024-02-07T22:06:57.758Z,8.70
2024-02-07T22:09:24.507Z,9.80
2024-02-07T22:11:51.213Z,11.10
2024-02-07T22:14:19.658Z,7.60
2024-02-07T22:16:46.444Z,9.40
2024-02-07T22:19:13.522Z,7.90
2024-02-07T22:21:40.224Z,8.60
2024-02-07T22:24:07.226Z,9.60
2024-02-07T22:26:34.016Z,10.00
2024-02-07T22:29:01.208Z,8.60
2024-02-07T22:31:31.831Z,7.80
2024-02-07T22:33:58.939Z,11.80
2024-02-07T22:36:25.659Z,8.90
2024-02-07T22:38:54.182Z,7.70
2024-02-07T22:41:20.819Z,7.30
2024-02-07T22:43:47.526Z,8.20
2024-02-07T22:46:14.174Z,11.60
2024-02-07T22:48:40.888Z,7.30
2024-02-07T22:51:07.513Z,6.60
2024-02-07T22:53:34.916Z,6.50
2024-02-07T22:56:01.972Z,7.80
2024-02-07T22:58:28.628Z,5.40
2024-02-07T23:00:55.818Z,7.20
2024-02-07T23:03:22.724Z,6.20
2024-02-07T23:05:49.764Z,6.30
2024-02-07T23:08:16.408Z,5.70
2024-02-07T23:10:45.473Z,8.20
2024-02-07T23:13:12.497Z,9.10
2024-02-07T23:15:39.650Z,9.70
2024-02-07T23:18:07.619Z,8.40
2024-02-07T23:20:34.573Z,11.90
2024-02-07T23:23:01.587Z,11.50
2024-02-07T23:25:28.468Z,8.60
2024-02-07T23:27:55.119Z,11.50
2024-02-07T23:30:21.740Z,9.20
2024-02-07T23:32:48.496Z,9.90
2024-02-07T23:35:15.556Z,11.50
2024-02-07T23:37:42.241Z,10.30
2024-02-07T23:40:09.199Z,7.80
2024-02-07T23:42:35.935Z,7.70
2024-02-07T23:45:02.796Z,8.00
2024-02-07T23:47:29.656Z,8.30
2024-02-07T23:49:56.346Z,9.40
2024-02-07T23:52:22.953Z,10.50
2024-02-07T23:54:50.584Z,6.30
2024-02-07T23:57:17.230Z,6.40
2024-02-07T23:59:44.054Z,6.90
